| time (UTC) | temp F | wind direction | speed knots | gust knots | rain 1hr in | rain 24hr in | rain mn in | humidity % | barometer mb |
| 20260506192518 | 58 | 161 | 1.7 | 6.1 | 0.02 | 0.14 | 0.14 | 94 | 1007.4 |
| 20260506191519 | 58 | 169 | 2.6 | 7.0 | 0.03 | 0.14 | 0.14 | 94 | 1007.5 |
| 20260506190519 | 58 | 163 | 2.6 | 7.8 | 0.05 | 0.14 | 0.14 | 94 | 1007.6 |
| 20260506185539 | 58 | 156 | 2.6 | 6.1 | 0.06 | 0.14 | 0.14 | 94 | 1007.7 |
| 20260506184519 | 58 | 182 | 1.7 | 6.1 | 0.06 | 0.14 | 0.14 | 94 | 1007.8 |
| 20260506183519 | 58 | 168 | 1.7 | 4.3 | 0.07 | 0.14 | 0.14 | 93 | 1007.9 |
| 20260506182519 | 58 | 184 | 0.0 | 1.7 | 0.07 | 0.12 | 0.12 | 93 | 1008.1 |
| 20260506181520 | 58 | 154 | 1.7 | 4.3 | 0.07 | 0.11 | 0.11 | 92 | 1008.2 |
| 20260506180520 | 58 | 156 | 1.7 | 3.5 | 0.07 | 0.09 | 0.09 | 92 | 1008.1 |
| 20260506175519 | 58 | 184 | 1.7 | 4.3 | 0.06 | 0.09 | 0.09 | 92 | 1008.0 |
| 20260506174520 | 58 | 184 | 1.7 | 5.2 | 0.06 | 0.08 | 0.08 | 92 | 1008.2 |
| 20260506173520 | 59 | 165 | 1.7 | 6.1 | 0.07 | 0.07 | 0.07 | 91 | 1008.4 |
| 20260506172520 | 59 | 168 | 2.6 | 5.2 | 0.06 | 0.06 | 0.06 | 90 | 1008.7 |
| 20260506171517 | 59 | 224 | 1.7 | 5.2 | 0.04 | 0.04 | 0.04 | 89 | 1008.9 |
| 20260506170521 | 59 | 168 | 0.9 | 4.3 | 0.03 | 0.03 | 0.03 | 88 | 1009.2 |
| 20260506165521 | 60 | 190 | 1.7 | 5.2 | 0.02 | 0.02 | 0.02 | 87 | 1009.2 |
| 20260506164518 | 61 | 147 | 1.7 | 4.3 | 0.02 | 0.02 | 0.02 | 85 | 1009.2 |
| 20260506163518 | 61 | 158 | 2.6 | 4.3 | 0.01 | 0.01 | 0.01 | 82 | 1009.2 |
| 20260506162519 | 62 | 180 | 2.6 | 7.0 | 0.00 | 0.00 | 0.00 | 79 | 1009.1 |
| 20260506161519 | 63 | 186 | 2.6 | 7.0 | 0.00 | 0.00 | 0.00 | 78 | 1009.2 |
| 20260506160519 | 63 | 162 | 1.7 | 6.1 | 0.00 | 0.00 | 0.00 | 78 | 1009.2 |
| 20260506155519 | 63 | 174 | 2.6 | 7.0 | 0.00 | 0.00 | 0.00 | 78 | 1009.5 |
| 20260506154519 | 62 | 160 | 2.6 | 9.6 | 0.00 | 0.00 | 0.00 | 78 | 1009.5 |
| 20260506153540 | 62 | 153 | 2.6 | 7.0 | 0.00 | 0.00 | 0.00 | 78 | 1009.7 |
| 20260506152520 | 62 | 164 | 4.3 | 7.8 | 0.00 | 0.00 | 0.00 | 78 | 1009.5 |
| 20260506151520 | 62 | 162 | 2.6 | 7.0 | 0.00 | 0.00 | 0.00 | 78 | 1009.4 |
| 20260506150520 | 62 | 154 | 2.6 | 7.8 | 0.00 | 0.00 | 0.00 | 78 | 1009.4 |
| 20260506145540 | 63 | 152 | 2.6 | 7.0 | 0.00 | 0.00 | 0.00 | 78 | 1009.4 |
| 20260506144520 | 63 | 163 | 2.6 | 7.8 | 0.00 | 0.00 | 0.00 | 77 | 1009.4 |
| 20260506143517 | 63 | 144 | 4.3 | 7.8 | 0.00 | 0.00 | 0.00 | 77 | 1009.6 |
| 20260506142517 | 64 | 170 | 2.6 | 6.1 | 0.00 | 0.00 | 0.00 | 76 | 1009.6 |
| 20260506141521 | 64 | 150 | 1.7 | 4.3 | 0.00 | 0.00 | 0.00 | 76 | 1009.6 |
| 20260506140521 | 63 | 149 | 2.6 | 7.0 | 0.00 | 0.00 | 0.00 | 77 | 1009.7 |
| 20260506135518 | 63 | 175 | 2.6 | 7.8 | 0.00 | 0.00 | 0.00 | 78 | 1009.8 |
| 20260506134519 | 62 | 157 | 3.5 | 7.8 | 0.00 | 0.00 | 0.00 | 78 | 1009.8 |
| 20260506133539 | 62 | 166 | 2.6 | 6.1 | 0.00 | 0.00 | 0.00 | 79 | 1009.6 |
| 20260506132518 | 62 | 158 | 2.6 | 7.8 | 0.00 | 0.00 | 0.00 | 79 | 1009.5 |
| 20260506131519 | 62 | 188 | 0.9 | 6.1 | 0.00 | 0.00 | 0.00 | 80 | 1009.5 |
| 20260506130519 | 61 | 150 | 2.6 | 7.0 | 0.00 | 0.00 | 0.00 | 81 | 1009.6 |
| 20260506125519 | 61 | 158 | 3.5 | 9.6 | 0.00 | 0.00 | 0.00 | 81 | 1009.7 |
| 20260506124519 | 61 | 159 | 4.3 | 9.6 | 0.00 | 0.00 | 0.00 | 81 | 1009.8 |
| 20260506123523 | 61 | 159 | 2.6 | 5.2 | 0.00 | 0.00 | 0.00 | 81 | 1010.0 |
| 20260506122522 | 61 | 162 | 3.5 | 7.0 | 0.00 | 0.00 | 0.00 | 82 | 1010.2 |
| 20260506121557 | 60 | 167 | 3.5 | 7.0 | 0.00 | 0.00 | 0.00 | 83 | 1010.1 |
| 20260506120523 | 60 | 139 | 2.6 | 6.1 | 0.00 | 0.00 | 0.00 | 84 | 1010.0 |
| 20260506115525 | 59 | 169 | 2.6 | 4.3 | 0.00 | 0.00 | 0.00 | 85 | 1010.1 |
| 20260506114544 | 59 | 172 | 1.7 | 5.2 | 0.00 | 0.00 | 0.00 | 86 | 1010.0 |
| 20260506113524 | 58 | 164 | 4.3 | 7.8 | 0.00 | 0.00 | 0.00 | 87 | 1010.1 |
| 20260506112518 | 58 | 159 | 2.6 | 6.1 | 0.00 | 0.00 | 0.00 | 88 | 1010.1 |
| 20260506111518 | 58 | 162 | 2.6 | 6.1 | 0.00 | 0.00 | 0.00 | 88 | 1010.2 |
| 20260506110524 | 57 | 153 | 4.3 | 7.0 | 0.00 | 0.00 | 0.00 | 89 | 1010.3 |
| 20260506105541 | 57 | 162 | 2.6 | 4.3 | 0.00 | 0.00 | 0.00 | 89 | 1010.2 |
| 20260506104521 | 56 | 166 | 1.7 | 2.6 | 0.00 | 0.00 | 0.00 | 90 | 1010.1 |
| 20260506103521 | 56 | 155 | 1.7 | 3.5 | 0.00 | 0.00 | 0.00 | 90 | 1010.2 |
| 20260506102521 | 56 | 178 | 1.7 | 2.6 | 0.00 | 0.00 | 0.00 | 90 | 1010.2 |
| 20260506101522 | 56 | 209 | 0.9 | 1.7 | 0.00 | 0.00 | 0.00 | 89 | 1010.1 |
| 20260506100602 | 56 | 187 | 0.0 | 0.9 | 0.00 | 0.00 | 0.00 | 89 | 1010.1 |
| 20260506095522 | 56 | 219 | 0.9 | 1.7 | 0.00 | 0.00 | 0.00 | 89 | 1010.1 |
| 20260506094522 | 56 | 168 | 0.9 | 1.7 | 0.00 | 0.00 | 0.00 | 88 | 1010.0 |
| 20260506093542 | 57 | 183 | 0.9 | 2.6 | 0.00 | 0.00 | 0.00 | 88 | 1009.9 |
| 20260506092523 | 57 | 173 | 1.7 | 3.5 | 0.00 | 0.00 | 0.00 | 88 | 1010.0 |
| 20260506091520 | 57 | 163 | 2.6 | 5.2 | 0.00 | 0.00 | 0.00 | 88 | 1010.1 |
| 20260506090523 | 57 | 174 | 1.7 | 3.5 | 0.00 | 0.00 | 0.00 | 87 | 1010.1 |
| 20260506085520 | 57 | 207 | 1.7 | 4.3 | 0.00 | 0.00 | 0.00 | 87 | 1010.2 |
| 20260506084520 | 57 | 193 | 1.7 | 4.3 | 0.00 | 0.00 | 0.00 | 87 | 1010.2 |
| 20260506083520 | 57 | 204 | 1.7 | 5.2 | 0.00 | 0.00 | 0.00 | 87 | 1010.3 |
| 20260506082521 | 57 | 160 | 1.7 | 4.3 | 0.00 | 0.00 | 0.00 | 86 | 1010.3 |
| 20260506081524 | 57 | 166 | 2.6 | 3.5 | 0.00 | 0.00 | 0.00 | 86 | 1010.2 |
| 20260506080544 | 57 | 188 | 0.9 | 3.5 | 0.00 | 0.00 | 0.00 | 86 | 1010.2 |
| 20260506073524 | 58 | 200 | 1.7 | 4.3 | 0.00 | 0.00 | 0.00 | 85 | 1010.3 |
| 20260506072521 | 58 | 187 | 1.7 | 5.2 | 0.00 | 0.00 | 0.00 | 84 | 1010.4 |
| 20260506071619 | 58 | 175 | 1.7 | 4.3 | 0.00 | 0.00 | 0.00 | 84 | 1010.4 |
| 20260506070539 | 58 | 162 | 1.7 | 7.8 | 0.00 | 0.00 | 0.00 | 84 | 1010.3 |
| 20260506062517 | 58 | 185 | 1.7 | 4.3 | 0.00 | 0.00 | 0.00 | 83 | 1010.2 |
| 20260506061520 | 58 | 185 | 1.7 | 5.2 | 0.00 | 0.00 | 0.00 | 82 | 1010.3 |
| 20260506060520 | 59 | 202 | 0.9 | 4.3 | 0.00 | 0.00 | 0.00 | 82 | 1010.3 |
| 20260506050519 | 60 | 211 | 0.9 | 2.6 | 0.00 | 0.00 | 0.00 | 79 | 1010.6 |
| 20260506044519 | 61 | 185 | 0.9 | 3.5 | 0.00 | 0.00 | 0.00 | 77 | 1010.7 |
| 20260506043519 | 62 | 201 | 0.9 | 2.6 | 0.00 | 0.00 | 0.00 | 76 | 1010.7 |
| 20260506042519 | 62 | 174 | 2.6 | 8.7 | 0.00 | 0.00 | 0.00 | 75 | 1010.7 |
| 20260506041519 | 62 | 148 | 1.7 | 5.2 | 0.00 | 0.00 | 0.00 | 75 | 1010.7 |
| 20260506040519 | 62 | 187 | 1.7 | 7.0 | 0.00 | 0.00 | 0.00 | 74 | 1010.7 |
| 20260506035520 | 62 | 167 | 2.6 | 5.2 | 0.00 | 0.00 | 0.00 | 74 | 1010.7 |
| 20260506034517 | 62 | 168 | 1.7 | 5.2 | 0.00 | 0.00 | 0.00 | 74 | 1010.7 |
| 20260506033520 | 63 | 163 | 0.9 | 2.6 | 0.00 | 0.00 | 0.00 | 73 | 1010.7 |
| 20260506032521 | 63 | 165 | 2.6 | 7.8 | 0.00 | 0.00 | 0.00 | 72 | 1010.7 |
| 20260506031521 | 63 | 164 | 2.6 | 6.1 | 0.00 | 0.00 | 0.00 | 71 | 1010.6 |
| 20260506030518 | 63 | 163 | 1.7 | 5.2 | 0.00 | 0.00 | 0.00 | 70 | 1010.7 |
| 20260506025518 | 63 | 175 | 1.7 | 6.1 | 0.00 | 0.00 | 0.00 | 70 | 1010.7 |
| 20260506024521 | 63 | 147 | 2.6 | 7.0 | 0.00 | 0.00 | 0.00 | 70 | 1010.7 |
| 20260506023518 | 63 | 154 | 2.6 | 6.1 | 0.00 | 0.00 | 0.00 | 69 | 1010.6 |
| 20260506022539 | 63 | 162 | 2.6 | 7.0 | 0.00 | 0.00 | 0.00 | 69 | 1010.6 |
| 20260506021518 | 63 | 165 | 2.6 | 6.1 | 0.00 | 0.00 | 0.00 | 69 | 1010.5 |
| 20260506020519 | 63 | 185 | 1.7 | 4.3 | 0.00 | 0.00 | 0.00 | 69 | 1010.4 |
| 20260506015519 | 63 | 189 | 1.7 | 3.5 | 0.00 | 0.00 | 0.00 | 69 | 1010.4 |
| 20260506014519 | 63 | 183 | 0.9 | 2.6 | 0.00 | 0.00 | 0.00 | 69 | 1010.3 |
| 20260506013519 | 63 | 160 | 1.7 | 7.0 | 0.00 | 0.00 | 0.00 | 69 | 1010.2 |
| 20260506012520 | 63 | 155 | 1.7 | 6.1 | 0.00 | 0.00 | 0.00 | 69 | 1010.1 |
| 20260506011520 | 63 | 157 | 2.6 | 5.2 | 0.00 | 0.00 | 0.00 | 68 | 1009.9 |
| 20260506010520 | 63 | 169 | 1.7 | 7.0 | 0.00 | 0.00 | 0.00 | 67 | 1009.9 |
| 20260506005525 | 64 | 173 | 2.6 | 8.7 | 0.00 | 0.00 | 0.00 | 67 | 1009.7 |
| 20260506004520 | 64 | 186 | 1.7 | 6.1 | 0.00 | 0.00 | 0.00 | 66 | 1009.6 |
| 20260506003520 | 64 | 155 | 2.6 | 7.8 | 0.00 | 0.00 | 0.00 | 65 | 1009.4 |
| 20260506002518 | 64 | 179 | 1.7 | 6.1 | 0.00 | 0.00 | 0.00 | 65 | 1009.4 |
| 20260506001518 | 64 | 159 | 2.6 | 6.1 | 0.00 | 0.00 | 0.00 | 65 | 1009.2 |
| 20260506000538 | 64 | 155 | 2.6 | 6.1 | 0.00 | 0.00 | 0.00 | 65 | 1009.2 |
| 20260505235521 | 65 | 174 | 0.9 | 3.5 | 0.00 | 0.00 | 0.00 | 65 | 1009.1 |
| 20260505234519 | 65 | 186 | 1.7 | 4.3 | 0.00 | 0.00 | 0.00 | 64 | 1009.0 |
| 20260505233539 | 65 | 173 | 2.6 | 7.8 | 0.00 | 0.00 | 0.00 | 64 | 1008.9 |
| 20260505232519 | 66 | 160 | 3.5 | 7.0 | 0.00 | 0.00 | 0.00 | 63 | 1008.8 |
| 20260505231539 | 66 | 162 | 3.5 | 9.6 | 0.00 | 0.00 | 0.00 | 63 | 1008.7 |
| 20260505230517 | 67 | 154 | 6.1 | 13.0 | 0.00 | 0.00 | 0.00 | 62 | 1008.4 |
| 20260505225519 | 67 | 157 | 3.5 | 8.7 | 0.00 | 0.00 | 0.00 | 62 | 1008.4 |
| 20260505224519 | 67 | 154 | 3.5 | 8.7 | 0.00 | 0.00 | 0.00 | 62 | 1008.4 |
| 20260505223519 | 68 | 173 | 2.6 | 7.8 | 0.00 | 0.00 | 0.00 | 61 | 1008.5 |
| 20260505222517 | 68 | 164 | 3.5 | 10.4 | 0.00 | 0.00 | 0.00 | 61 | 1008.5 |
| 20260505221518 | 68 | 160 | 4.3 | 7.8 | 0.00 | 0.00 | 0.00 | 60 | 1008.4 |
| 20260505220517 | 69 | 176 | 3.5 | 7.8 | 0.00 | 0.00 | 0.00 | 60 | 1008.4 |
| 20260505215520 | 69 | 167 | 4.3 | 9.6 | 0.00 | 0.00 | 0.00 | 61 | 1008.3 |
| 20260505214538 | 69 | 189 | 2.6 | 7.0 | 0.00 | 0.00 | 0.00 | 61 | 1008.3 |
| 20260505213518 | 69 | 188 | 2.6 | 8.7 | 0.00 | 0.00 | 0.00 | 61 | 1008.2 |
| 20260505212518 | 69 | 179 | 3.5 | 7.8 | 0.00 | 0.00 | 0.00 | 61 | 1008.2 |
| 20260505211518 | 69 | 167 | 4.3 | 7.8 | 0.00 | 0.00 | 0.00 | 61 | 1008.1 |
| 20260505210518 | 69 | 163 | 4.3 | 7.8 | 0.00 | 0.00 | 0.00 | 61 | 1008.2 |
| 20260505205519 | 69 | 183 | 2.6 | 6.1 | 0.00 | 0.00 | 0.00 | 62 | 1008.1 |
| 20260505204544 | 69 | 174 | 3.5 | 7.8 | 0.00 | 0.00 | 0.00 | 62 | 1008.1 |
| 20260505203519 | 69 | 165 | 5.2 | 8.7 | 0.00 | 0.00 | 0.00 | 61 | 1008.1 |
| 20260505202519 | 69 | 167 | 3.5 | 7.8 | 0.00 | 0.00 | 0.00 | 61 | 1008.1 |
| 20260505201519 | 70 | 172 | 3.5 | 9.6 | 0.00 | 0.00 | 0.00 | 60 | 1008.2 |
| 20260505200519 | 70 | 175 | 2.6 | 7.0 | 0.00 | 0.00 | 0.00 | 60 | 1008.4 |
| 20260505195600 | 70 | 172 | 4.3 | 7.8 | 0.00 | 0.00 | 0.00 | 60 | 1008.4 |
| 20260505194520 | 70 | 176 | 4.3 | 9.6 | 0.00 | 0.00 | 0.00 | 60 | 1008.4 |
| 20260505193520 | 71 | 173 | 4.3 | 8.7 | 0.00 | 0.00 | 0.00 | 60 | 1008.5 |